Time;durP1;ratioP1;P1;durP2;ratioP2;P2;SDS_P1;SDS_P2;PMS_P1;PMS_P2;Temp;Humidity;BMP_temperature;BMP_pressure;BME280_temperature;BME280_humidity;BME280_pressure;Samples;Min_cycle;Max_cycle;Signal;HPM_P1;HPM_P2
2023/09/26 00:01:29;;;;;;;6.87;5.70;;;10.70;65.20;;;;;;5071729;28;20172;-70
2023/09/26 00:03:55;;;;;;;9.33;4.57;;;10.80;62.60;;;;;;5070150;28;20297;-70
2023/09/26 00:06:23;;;;;;;6.03;4.60;;;10.70;61.50;;;;;;5071733;28;20877;-70
2023/09/26 00:08:49;;;;;;;5.73;4.60;;;10.60;61.70;;;;;;5070181;28;20586;-69
2023/09/26 00:11:16;;;;;;;5.53;4.83;;;10.60;64.60;;;;;;5071656;28;20408;-69
2023/09/26 00:13:43;;;;;;;6.00;5.20;;;10.60;64.10;;;;;;5071290;28;20411;-70
2023/09/26 00:16:09;;;;;;;5.53;4.53;;;10.60;67.10;;;;;;5070480;28;20495;-69
2023/09/26 00:18:35;;;;;;;6.30;5.27;;;10.60;65.00;;;;;;5071503;28;20439;-69
2023/09/26 00:21:01;;;;;;;6.13;5.27;;;10.50;65.00;;;;;;5071540;28;20412;-69
2023/09/26 00:23:26;;;;;;;7.00;5.50;;;10.50;66.70;;;;;;5071279;28;20541;-69
2023/09/26 00:25:52;;;;;;;5.60;5.00;;;10.40;67.50;;;;;;5071490;28;20227;-70
2023/09/26 00:28:17;;;;;;;6.27;5.37;;;10.40;66.70;;;;;;5071334;28;20569;-70
2023/09/26 00:30:43;;;;;;;6.30;5.60;;;10.30;69.50;;;;;;5071736;28;20256;-69
2023/09/26 00:33:09;;;;;;;5.30;4.80;;;10.30;69.20;;;;;;5071383;28;20178;-69
2023/09/26 00:35:35;;;;;;;5.63;5.03;;;10.20;69.30;;;;;;5071413;28;20680;-70
2023/09/26 00:38:00;;;;;;;10.47;6.00;;;10.20;69.10;;;;;;5071368;28;20194;-70
2023/09/26 00:40:26;;;;;;;6.73;5.00;;;10.20;69.30;;;;;;5071300;28;20442;-70
2023/09/26 00:42:52;;;;;;;7.97;5.20;;;10.20;70.10;;;;;;5070848;28;20459;-71
2023/09/26 00:45:17;;;;;;;7.10;4.80;;;10.20;69.10;;;;;;5071467;28;20174;-69
2023/09/26 00:47:44;;;;;;;9.63;5.40;;;10.20;69.60;;;;;;5071265;28;20596;-70
2023/09/26 00:50:13;;;;;;;6.27;4.87;;;10.10;69.10;;;;;;5071231;28;20166;-69
2023/09/26 00:52:51;;;;;;;6.77;6.07;;;10.10;69.20;;;;;;5069925;28;20468;-70
2023/09/26 00:55:20;;;;;;;7.70;5.57;;;10.10;70.40;;;;;;5071149;28;20498;-70
2023/09/26 00:57:46;;;;;;;6.13;5.53;;;10.20;70.20;;;;;;5071109;28;20511;-69
2023/09/26 01:00:15;;;;;;;8.00;6.70;;;10.20;68.30;;;;;;5073222;28;20462;-69
2023/09/26 01:02:41;;;;;;;6.40;5.70;;;10.20;69.30;;;;;;5073410;28;20435;-69
2023/09/26 01:05:08;;;;;;;7.70;5.70;;;10.20;69.70;;;;;;5073284;28;20424;-69
2023/09/26 01:07:34;;;;;;;7.10;6.00;;;10.20;68.90;;;;;;5074479;28;20412;-70
2023/09/26 01:10:01;;;;;;;8.67;5.33;;;10.10;68.70;;;;;;5074750;28;20419;-69
2023/09/26 01:12:28;;;;;;;6.40;5.70;;;10.20;67.30;;;;;;5074527;28;20416;-69
2023/09/26 01:14:54;;;;;;;7.93;7.07;;;10.10;66.80;;;;;;5074523;28;20821;-70
2023/09/26 01:17:20;;;;;;;7.83;6.40;;;10.10;67.60;;;;;;5074626;28;20926;-69
2023/09/26 01:19:46;;;;;;;5.83;5.30;;;10.10;67.20;;;;;;5074463;28;20437;-69
2023/09/26 01:22:15;;;;;;;6.50;4.80;;;10.10;67.40;;;;;;5073115;28;20177;-70
2023/09/26 01:24:41;;;;;;;10.00;7.00;;;10.10;66.60;;;;;;5074395;28;20290;-70
2023/09/26 01:27:06;;;;;;;6.93;5.93;;;10.10;67.40;;;;;;5074429;28;20866;-69
2023/09/26 01:29:32;;;;;;;7.20;6.30;;;10.00;66.30;;;;;;5074321;28;20542;-69
2023/09/26 01:31:58;;;;;;;8.77;6.90;;;10.00;68.10;;;;;;5074305;28;20182;-69
2023/09/26 01:34:23;;;;;;;9.63;6.83;;;9.90;69.00;;;;;;5074601;28;20181;-70
2023/09/26 01:36:49;;;;;;;7.37;6.60;;;9.90;68.50;;;;;;5072954;28;20216;-70
2023/09/26 01:39:14;;;;;;;8.80;7.83;;;9.90;67.30;;;;;;5074262;28;20197;-69
2023/09/26 01:41:41;;;;;;;8.60;7.43;;;9.80;67.60;;;;;;5074195;28;20518;-69
2023/09/26 01:44:06;;;;;;;8.97;7.57;;;9.80;67.80;;;;;;5073868;28;20566;-69
2023/09/26 01:46:32;;;;;;;8.70;7.23;;;9.80;68.30;;;;;;5072759;28;20522;-69
2023/09/26 01:48:58;;;;;;;7.27;6.50;;;9.70;68.60;;;;;;5073941;28;20580;-70
2023/09/26 01:51:23;;;;;;;8.77;7.33;;;9.70;68.50;;;;;;5073900;28;20205;-70
2023/09/26 01:53:49;;;;;;;8.13;6.50;;;9.60;67.90;;;;;;5073640;28;20235;-70
2023/09/26 01:56:14;;;;;;;7.50;6.20;;;9.50;69.40;;;;;;5073878;28;20182;-69
2023/09/26 01:58:40;;;;;;;9.10;6.30;;;9.50;69.90;;;;;;5072603;28;20206;-69
2023/09/26 02:01:05;;;;;;;7.00;5.97;;;9.50;70.90;;;;;;5073860;28;20182;-71
2023/09/26 02:03:31;;;;;;;8.00;6.47;;;9.60;70.60;;;;;;5073467;28;20747;-71
2023/09/26 02:05:58;;;;;;;5.70;5.10;;;9.60;69.20;;;;;;5073688;28;20170;-69
2023/09/26 02:08:24;;;;;;;8.10;6.50;;;9.50;69.90;;;;;;5073753;28;20213;-69
2023/09/26 02:10:49;;;;;;;7.10;5.80;;;9.50;69.50;;;;;;5073119;28;20421;-69
2023/09/26 02:13:15;;;;;;;9.37;7.73;;;9.50;68.70;;;;;;5073207;28;20264;-69
2023/09/26 02:15:40;;;;;;;6.80;5.87;;;9.50;70.10;;;;;;5073481;28;20246;-70
2023/09/26 02:18:06;;;;;;;7.77;6.40;;;9.50;69.80;;;;;;5072065;28;20612;-69
2023/09/26 02:20:32;;;;;;;7.63;6.33;;;9.40;69.90;;;;;;5072239;28;20318;-70
2023/09/26 02:22:57;;;;;;;7.70;6.67;;;9.40;69.90;;;;;;5071862;28;20554;-70
2023/09/26 02:25:23;;;;;;;8.70;6.33;;;9.40;70.50;;;;;;5071987;28;20254;-69
2023/09/26 02:27:49;;;;;;;7.83;7.00;;;9.40;71.70;;;;;;5073244;28;20197;-70
2023/09/26 02:30:23;;;;;;;9.23;7.90;;;9.40;71.70;;;;;;5073257;28;20181;-69
2023/09/26 02:32:49;;;;;;;9.63;7.73;;;9.40;71.70;;;;;;5072945;28;20485;-69
2023/09/26 02:35:16;;;;;;;7.77;6.97;;;9.40;71.70;;;;;;5071778;28;20411;-69
2023/09/26 02:37:43;;;;;;;9.63;8.67;;;9.40;71.10;;;;;;5071770;28;20185;-69
2023/09/26 02:40:10;;;;;;;9.57;8.03;;;9.40;71.50;;;;;;5072932;28;20461;-69
2023/09/26 02:42:43;;;;;;;8.03;7.07;;;9.40;71.70;;;;;;5072878;28;20499;-69
2023/09/26 02:45:10;;;;;;;10.70;8.70;;;9.30;71.60;;;;;;5071562;28;20428;-69
2023/09/26 02:47:36;;;;;;;12.27;9.33;;;9.30;71.60;;;;;;5071430;28;20480;-71
2023/09/26 02:50:01;;;;;;;11.20;8.93;;;9.20;72.10;;;;;;5072772;28;20832;-69
2023/09/26 02:52:27;;;;;;;9.27;8.30;;;9.20;72.30;;;;;;5072953;28;20694;-69
2023/09/26 02:54:53;;;;;;;9.40;7.30;;;9.10;72.50;;;;;;5072408;28;20188;-69
2023/09/26 02:57:19;;;;;;;10.37;8.17;;;9.10;72.30;;;;;;5072925;28;20598;-69
2023/09/26 02:59:45;;;;;;;8.60;7.80;;;9.10;72.60;;;;;;5072654;28;20474;-69
2023/09/26 03:02:11;;;;;;;8.87;7.30;;;9.10;73.20;;;;;;5072590;28;20448;-69
2023/09/26 03:04:36;;;;;;;11.07;8.77;;;9.10;72.30;;;;;;5072200;28;20465;-69
2023/09/26 03:07:02;;;;;;;8.40;7.50;;;9.10;71.60;;;;;;5072568;28;20176;-70
2023/09/26 03:09:28;;;;;;;9.37;7.90;;;9.10;71.80;;;;;;5070920;28;20216;-69
2023/09/26 03:11:53;;;;;;;10.00;8.53;;;9.00;71.40;;;;;;5072410;28;20230;-69
2023/09/26 03:14:20;;;;;;;9.97;8.20;;;9.00;71.40;;;;;;5072199;28;20418;-69
2023/09/26 03:16:46;;;;;;;10.83;8.50;;;8.90;71.30;;;;;;5072346;28;20180;-69
2023/09/26 03:19:12;;;;;;;10.37;9.27;;;9.00;71.10;;;;;;5072712;28;20437;-70
2023/09/26 03:21:37;;;;;;;10.17;8.23;;;8.90;71.10;;;;;;5072403;28;20179;-69
2023/09/26 03:24:03;;;;;;;9.73;8.20;;;8.90;70.20;;;;;;5071012;28;20455;-69
2023/09/26 03:26:28;;;;;;;11.47;8.80;;;8.80;70.70;;;;;;5072252;28;20178;-71
2023/09/26 03:28:54;;;;;;;10.10;8.50;;;8.80;71.50;;;;;;5072174;28;20200;-69
2023/09/26 03:31:19;;;;;;;10.97;8.67;;;8.80;71.20;;;;;;5071955;28;20204;-69
2023/09/26 03:33:45;;;;;;;11.43;8.53;;;8.80;71.20;;;;;;5072207;28;20196;-69
2023/09/26 03:36:11;;;;;;;10.37;8.40;;;8.80;71.20;;;;;;5070801;28;20180;-71
2023/09/26 03:38:36;;;;;;;9.70;7.83;;;8.70;71.10;;;;;;5072094;28;20201;-69
2023/09/26 03:41:06;;;;;;;9.70;8.70;;;8.70;71.50;;;;;;5072092;28;20188;-69
2023/09/26 03:43:32;;;;;;;11.20;9.73;;;8.80;71.20;;;;;;5071798;28;20200;-69
2023/09/26 03:46:03;;;;;;;10.80;8.70;;;8.80;72.30;;;;;;5070897;28;20418;-70
2023/09/26 03:48:29;;;;;;;8.93;8.00;;;8.80;72.00;;;;;;5071822;28;20236;-69
2023/09/26 03:50:54;;;;;;;9.80;8.67;;;8.70;71.40;;;;;;5072212;28;20497;-69
2023/09/26 03:53:20;;;;;;;10.30;8.33;;;8.80;72.40;;;;;;5071552;28;20474;-69
2023/09/26 03:55:55;;;;;;;9.97;6.67;;;8.80;71.70;;;;;;5071829;28;20223;-69
2023/09/26 03:58:21;;;;;;;10.77;8.87;;;8.80;71.40;;;;;;5072160;28;20193;-69
2023/09/26 04:00:47;;;;;;;9.17;8.10;;;8.80;71.40;;;;;;5071735;28;20798;-69
2023/09/26 04:03:12;;;;;;;10.77;8.40;;;8.80;71.20;;;;;;5070110;28;20989;-69
2023/09/26 04:05:39;;;;;;;8.57;7.60;;;8.70;72.10;;;;;;5071909;28;20227;-70
2023/09/26 04:08:05;;;;;;;10.00;8.10;;;8.70;72.10;;;;;;5071502;28;20706;-69
2023/09/26 04:10:39;;;;;;;10.20;7.50;;;8.70;72.30;;;;;;5071711;28;20416;-69
2023/09/26 04:13:04;;;;;;;10.83;8.80;;;8.70;72.70;;;;;;5070069;28;20185;-69
2023/09/26 04:15:30;;;;;;;12.40;8.90;;;8.60;72.40;;;;;;5071624;28;20418;-69
2023/09/26 04:17:56;;;;;;;9.33;7.57;;;8.60;72.20;;;;;;5070250;28;20204;-69
2023/09/26 04:20:22;;;;;;;10.60;8.63;;;8.60;71.80;;;;;;5071535;28;20184;-71
2023/09/26 04:22:48;;;;;;;13.90;9.37;;;8.60;71.40;;;;;;5069907;28;20268;-73
2023/09/26 04:25:14;;;;;;;10.47;7.77;;;8.50;71.00;;;;;;5071523;28;20831;-70
2023/09/26 04:27:40;;;;;;;10.13;9.13;;;8.50;72.60;;;;;;5070152;28;20557;-71
2023/09/26 04:30:07;;;;;;;12.60;9.13;;;8.50;72.10;;;;;;5070681;28;20674;-69
2023/09/26 04:32:32;;;;;;;13.57;8.13;;;8.50;71.00;;;;;;5070118;28;20506;-70
2023/09/26 04:34:58;;;;;;;9.87;8.70;;;8.50;71.00;;;;;;5073294;28;20442;-69
2023/09/26 04:37:23;;;;;;;10.93;8.07;;;8.40;71.10;;;;;;5074300;28;20548;-69
2023/09/26 04:39:49;;;;;;;15.37;8.53;;;8.50;70.90;;;;;;5073935;28;20199;-69
2023/09/26 04:42:14;;;;;;;10.90;8.20;;;8.40;71.90;;;;;;5075179;28;20178;-70
2023/09/26 04:44:40;;;;;;;9.93;8.10;;;8.40;72.10;;;;;;5074976;28;20218;-70
2023/09/26 04:47:06;;;;;;;13.20;9.30;;;8.40;72.20;;;;;;5074077;28;20560;-69
2023/09/26 04:49:34;;;;;;;10.20;9.10;;;8.40;72.10;;;;;;5075392;28;20219;-69
2023/09/26 04:51:59;;;;;;;11.10;10.00;;;8.40;71.60;;;;;;5075095;28;20170;-69
2023/09/26 04:54:25;;;;;;;10.97;8.60;;;8.40;70.80;;;;;;5074852;28;20882;-69
2023/09/26 04:56:50;;;;;;;12.10;9.00;;;8.40;71.70;;;;;;5074967;28;20190;-70
2023/09/26 04:59:17;;;;;;;11.83;8.00;;;8.40;70.80;;;;;;5074887;28;20291;-69
2023/09/26 05:01:42;;;;;;;13.23;9.67;;;8.40;70.90;;;;;;5074768;28;20178;-70
2023/09/26 05:04:08;;;;;;;12.77;9.40;;;8.30;70.70;;;;;;5074814;28;20462;-70
2023/09/26 05:06:33;;;;;;;10.70;8.80;;;8.40;71.00;;;;;;5075210;28;20533;-69
2023/09/26 05:08:59;;;;;;;11.40;9.00;;;8.30;70.80;;;;;;5073453;28;20280;-69
2023/09/26 05:11:27;;;;;;;11.30;8.70;;;8.30;71.20;;;;;;5074811;28;20251;-70
2023/09/26 05:13:53;;;;;;;10.93;9.47;;;8.30;70.80;;;;;;5073225;28;20270;-70
2023/09/26 05:16:19;;;;;;;12.27;9.87;;;8.30;70.80;;;;;;5073317;28;20905;-70
2023/09/26 05:18:44;;;;;;;12.43;9.80;;;8.20;71.70;;;;;;5074499;28;20199;-69
2023/09/26 05:21:11;;;;;;;10.87;8.93;;;8.20;71.40;;;;;;5074448;28;20234;-69
2023/09/26 05:23:37;;;;;;;12.33;9.13;;;8.20;71.90;;;;;;5074002;28;20192;-69
2023/09/26 05:26:10;;;;;;;13.43;9.50;;;8.20;72.60;;;;;;5074348;28;20435;-68
2023/09/26 05:28:36;;;;;;;13.73;10.83;;;8.20;74.40;;;;;;5074375;28;20207;-68
2023/09/26 05:31:02;;;;;;;10.77;9.47;;;8.30;73.70;;;;;;5072946;28;20931;-68
2023/09/26 05:33:28;;;;;;;10.83;9.10;;;8.30;74.20;;;;;;5074208;28;20181;-68
2023/09/26 05:35:54;;;;;;;10.30;8.07;;;8.30;73.30;;;;;;5074188;28;20411;-69
2023/09/26 05:38:20;;;;;;;9.13;8.10;;;8.30;74.80;;;;;;5074698;28;20199;-68
2023/09/26 05:40:46;;;;;;;10.53;8.70;;;8.40;75.20;;;;;;5074099;28;21025;-69
2023/09/26 05:43:12;;;;;;;10.83;9.40;;;8.40;73.60;;;;;;5072765;28;20245;-68
2023/09/26 05:45:38;;;;;;;11.40;7.90;;;8.40;73.80;;;;;;5072105;28;20454;-68
2023/09/26 05:48:04;;;;;;;10.63;8.30;;;8.40;73.70;;;;;;5072398;28;20459;-69
2023/09/26 05:50:30;;;;;;;9.60;8.40;;;8.50;75.20;;;;;;5074036;28;20185;-68
2023/09/26 05:52:56;;;;;;;11.50;10.30;;;8.60;75.30;;;;;;5073757;28;20818;-69
2023/09/26 05:55:21;;;;;;;14.90;8.73;;;8.60;73.40;;;;;;5073922;28;20473;-69
2023/09/26 05:57:48;;;;;;;12.90;8.67;;;8.70;73.70;;;;;;5073893;28;20196;-68
2023/09/26 06:00:14;;;;;;;11.53;9.97;;;8.70;73.50;;;;;;5072641;28;20236;-69
2023/09/26 06:02:39;;;;;;;8.87;7.57;;;8.80;74.00;;;;;;5073777;28;20452;-69
2023/09/26 06:05:05;;;;;;;11.50;9.80;;;8.90;71.90;;;;;;5072493;28;20423;-69
2023/09/26 06:07:31;;;;;;;11.70;8.33;;;8.90;71.30;;;;;;5072591;28;20536;-69
2023/09/26 06:09:58;;;;;;;11.30;9.63;;;9.00;71.30;;;;;;5072831;28;20181;-69
2023/09/26 06:12:24;;;;;;;14.57;13.03;;;9.00;71.50;;;;;;5073918;28;20483;-70
2023/09/26 06:14:49;;;;;;;10.70;8.20;;;9.10;71.50;;;;;;5073765;28;20499;-70
2023/09/26 06:17:15;;;;;;;14.40;10.60;;;9.20;72.80;;;;;;5074198;28;20184;-68
2023/09/26 06:19:46;;;;;;;15.13;10.67;;;9.30;73.10;;;;;;5073423;28;20193;-70
2023/09/26 06:22:12;;;;;;;16.40;11.67;;;9.50;74.70;;;;;;5073501;28;20205;-69
2023/09/26 06:24:37;;;;;;;10.10;8.53;;;9.60;74.50;;;;;;5073216;28;20946;-69
2023/09/26 06:27:03;;;;;;;11.47;10.37;;;9.80;72.90;;;;;;5073526;28;20180;-69
2023/09/26 06:29:28;;;;;;;12.57;10.40;;;10.00;70.60;;;;;;5073471;28;20672;-69
2023/09/26 06:31:54;;;;;;;14.30;10.87;;;10.10;67.70;;;;;;5074073;28;20170;-70
2023/09/26 06:34:19;;;;;;;11.93;9.60;;;10.30;65.50;;;;;;5073114;28;20615;-69
2023/09/26 06:36:46;;;;;;;12.97;9.10;;;10.30;61.60;;;;;;5073068;28;20185;-69
2023/09/26 06:39:12;;;;;;;12.80;10.80;;;10.40;64.90;;;;;;5073065;28;20703;-69
2023/09/26 06:41:38;;;;;;;12.33;9.10;;;10.60;65.10;;;;;;5073187;28;20469;-69
2023/09/26 06:44:04;;;;;;;11.93;9.50;;;10.70;62.20;;;;;;5072804;28;20448;-69
2023/09/26 06:46:30;;;;;;;11.43;9.30;;;10.80;59.00;;;;;;5073304;28;20416;-70
2023/09/26 06:48:55;;;;;;;11.30;9.53;;;10.90;58.50;;;;;;5072923;28;20242;-69
2023/09/26 06:51:21;;;;;;;9.80;8.37;;;11.10;55.50;;;;;;5072939;28;20197;-69
2023/09/26 06:53:47;;;;;;;9.10;8.20;;;11.30;52.50;;;;;;5072784;28;20170;-70
2023/09/26 06:56:13;;;;;;;8.27;6.80;;;11.40;50.20;;;;;;5072233;28;20185;-70
2023/09/26 06:58:39;;;;;;;12.37;7.83;;;11.50;47.80;;;;;;5072904;28;20522;-68
2023/09/26 07:01:13;;;;;;;10.70;7.47;;;11.40;45.40;;;;;;5074573;28;20178;-68
2023/09/26 07:03:38;;;;;;;8.93;7.87;;;11.40;45.70;;;;;;5074063;28;21002;-69
2023/09/26 07:06:09;;;;;;;8.43;7.50;;;11.40;47.10;;;;;;5073796;28;20419;-68
2023/09/26 07:08:35;;;;;;;11.57;6.60;;;11.40;47.80;;;;;;5073414;28;20213;-68
2023/09/26 07:11:05;;;;;;;10.10;7.87;;;11.40;47.90;;;;;;5072892;28;20458;-68
2023/09/26 07:13:31;;;;;;;8.17;6.90;;;11.40;47.60;;;;;;5072356;28;20412;-68
2023/09/26 07:16:00;;;;;;;9.13;7.90;;;11.50;47.10;;;;;;5072535;28;20416;-70
2023/09/26 07:18:26;;;;;;;9.90;6.70;;;11.60;46.50;;;;;;5072207;28;20194;-69
2023/09/26 07:20:52;;;;;;;7.60;5.93;;;11.60;46.90;;;;;;5071190;28;20420;-69
2023/09/26 07:23:17;;;;;;;7.47;6.70;;;11.70;44.60;;;;;;5072793;28;20292;-68
2023/09/26 07:25:43;;;;;;;7.47;6.60;;;11.70;44.50;;;;;;5072436;28;20180;-70
2023/09/26 07:28:08;;;;;;;8.50;7.10;;;11.80;44.50;;;;;;5071053;28;20198;-69
2023/09/26 07:30:34;;;;;;;10.03;6.83;;;11.80;43.70;;;;;;5072392;28;20178;-69
2023/09/26 07:33:00;;;;;;;10.33;7.20;;;11.80;44.70;;;;;;5072546;28;20229;-69
2023/09/26 07:35:27;;;;;;;9.60;7.47;;;12.00;43.90;;;;;;5072924;28;20207;-69
2023/09/26 07:37:53;;;;;;;8.73;6.80;;;12.30;41.50;;;;;;5072155;28;20519;-70
2023/09/26 07:40:19;;;;;;;10.37;8.53;;;12.60;37.60;;;;;;5070718;28;20575;-72
2023/09/26 07:42:44;;;;;;;11.83;8.37;;;12.70;36.50;;;;;;5072178;28;20570;-69
2023/09/26 07:45:10;;;;;;;9.40;8.37;;;13.10;35.80;;;;;;5072197;28;20185;-70
2023/09/26 07:47:36;;;;;;;13.23;8.50;;;13.30;32.50;;;;;;5071992;28;20177;-69
2023/09/26 07:50:02;;;;;;;15.30;7.97;;;13.40;32.50;;;;;;5071961;28;20773;-69
2023/09/26 07:52:28;;;;;;;8.37;5.80;;;13.60;31.40;;;;;;5072073;28;20276;-69
2023/09/26 07:54:54;;;;;;;7.37;6.30;;;13.80;29.80;;;;;;5072060;28;20503;-70
2023/09/26 07:57:20;;;;;;;8.73;5.40;;;13.90;28.20;;;;;;5072126;28;20709;-70
2023/09/26 07:59:46;;;;;;;16.53;6.67;;;14.00;28.40;;;;;;5071975;28;20209;-70
2023/09/26 08:02:12;;;;;;;8.50;6.90;;;14.10;27.90;;;;;;5071915;28;20934;-70
2023/09/26 08:04:38;;;;;;;13.47;7.70;;;14.80;25.90;;;;;;5070523;28;20489;-70
2023/09/26 08:07:04;;;;;;;11.60;7.60;;;15.10;22.50;;;;;;5071913;28;20174;-68
2023/09/26 08:09:30;;;;;;;8.87;6.50;;;15.10;22.80;;;;;;5071298;28;20716;-70
2023/09/26 08:11:55;;;;;;;7.43;6.33;;;15.20;21.80;;;;;;5071745;28;20992;-69
2023/09/26 08:14:21;;;;;;;14.27;6.70;;;15.30;21.30;;;;;;5071599;28;20420;-69
2023/09/26 08:16:47;;;;;;;8.00;7.20;;;15.20;21.60;;;;;;5072238;28;20186;-69
2023/09/26 08:19:13;;;;;;;11.80;7.60;;;15.20;22.20;;;;;;5071493;28;20248;-69
2023/09/26 08:21:39;;;;;;;8.57;6.00;;;15.60;20.80;;;;;;5070522;28;20182;-69
2023/09/26 08:24:06;;;;;;;10.67;7.40;;;15.50;20.20;;;;;;5071246;28;20459;-69
2023/09/26 08:26:31;;;;;;;8.03;7.23;;;15.30;20.80;;;;;;5071709;28;20461;-69
2023/09/26 08:28:57;;;;;;;7.80;7.00;;;15.20;21.90;;;;;;5071684;28;20916;-69
2023/09/26 08:31:22;;;;;;;8.80;6.27;;;15.20;22.10;;;;;;5071464;28;20533;-70
2023/09/26 08:33:49;;;;;;;7.20;6.20;;;15.20;23.30;;;;;;5070195;28;20185;-70
2023/09/26 08:36:20;;;;;;;9.77;7.10;;;15.20;22.60;;;;;;5071830;28;20182;-70
2023/09/26 08:38:47;;;;;;;14.93;5.60;;;15.20;23.00;;;;;;5071527;28;20440;-69
2023/09/26 08:41:16;;;;;;;11.43;6.23;;;15.30;23.40;;;;;;5071300;28;20418;-69
2023/09/26 08:43:42;;;;;;;8.17;7.30;;;15.30;23.40;;;;;;5071137;28;20537;-69
2023/09/26 08:46:08;;;;;;;7.90;7.10;;;15.30;22.90;;;;;;5071917;28;20412;-69
2023/09/26 08:48:34;;;;;;;7.87;6.50;;;15.40;23.50;;;;;;5071277;28;20420;-69
2023/09/26 08:51:00;;;;;;;12.70;7.60;;;15.40;22.90;;;;;;5070369;28;20263;-69
2023/09/26 08:53:26;;;;;;;10.30;8.07;;;15.40;22.30;;;;;;5071118;28;20448;-69
2023/09/26 08:55:52;;;;;;;9.30;7.50;;;15.50;22.10;;;;;;5071233;28;20489;-69
2023/09/26 08:58:19;;;;;;;9.67;6.60;;;15.60;21.70;;;;;;5071306;28;20217;-69
2023/09/26 09:00:45;;;;;;;8.47;6.77;;;15.70;22.60;;;;;;5071090;28;20181;-69
2023/09/26 09:03:11;;;;;;;6.93;5.40;;;15.90;22.50;;;;;;5069526;28;20829;-70
2023/09/26 09:05:38;;;;;;;5.97;4.93;;;16.10;21.80;;;;;;5069923;28;20637;-69
2023/09/26 09:08:05;;;;;;;7.10;5.13;;;16.20;20.70;;;;;;5071234;28;20483;-69
2023/09/26 09:10:31;;;;;;;10.57;7.20;;;16.40;20.70;;;;;;5069922;28;20514;-69
2023/09/26 09:13:04;;;;;;;5.83;5.23;;;16.50;20.50;;;;;;5071002;28;20499;-70
2023/09/26 09:15:30;;;;;;;5.60;4.83;;;16.70;19.50;;;;;;5071017;28;20177;-69
2023/09/26 09:17:57;;;;;;;7.17;6.47;;;16.90;18.80;;;;;;5071045;28;20502;-69
2023/09/26 09:20:33;;;;;;;8.97;6.40;;;17.00;18.40;;;;;;5071093;28;20417;-69
2023/09/26 09:23:04;;;;;;;6.00;4.40;;;17.10;18.90;;;;;;5073946;28;20412;-69
2023/09/26 09:25:31;;;;;;;8.27;4.73;;;17.30;18.00;;;;;;5074439;28;20418;-69
2023/09/26 09:27:59;;;;;;;6.97;5.60;;;17.50;17.50;;;;;;5074861;28;20428;-70
2023/09/26 09:30:25;;;;;;;5.90;5.30;;;17.60;16.80;;;;;;5073469;28;20424;-69
2023/09/26 09:32:50;;;;;;;7.87;4.90;;;17.70;16.60;;;;;;5074206;28;20458;-71
2023/09/26 09:35:18;;;;;;;6.37;5.03;;;17.90;16.20;;;;;;5074674;28;20253;-70
2023/09/26 09:37:49;;;;;;;15.70;6.10;;;18.00;16.30;;;;;;5074366;28;20182;-70
2023/09/26 09:40:22;;;;;;;8.37;5.17;;;18.20;15.60;;;;;;5074217;28;20408;-69
2023/09/26 09:42:49;;;;;;;6.70;5.20;;;18.30;15.30;;;;;;5075357;28;20915;-70
2023/09/26 09:45:16;;;;;;;5.73;4.93;;;18.50;15.10;;;;;;5072955;28;20786;-69
2023/09/26 09:47:45;;;;;;;8.13;4.90;;;18.70;14.20;;;;;;5074237;28;20486;-70
2023/09/26 09:50:12;;;;;;;6.83;4.30;;;18.80;14.00;;;;;;5072885;28;20775;-69
2023/09/26 09:52:42;;;;;;;5.60;4.50;;;19.00;13.20;;;;;;5074128;28;20444;-69
2023/09/26 09:55:12;;;;;;;5.73;4.50;;;19.00;11.40;;;;;;5073868;28;20435;-71
2023/09/26 09:57:41;;;;;;;8.93;4.40;;;19.00;12.50;;;;;;5073894;28;20820;-69
2023/09/26 10:00:08;;;;;;;7.23;5.03;;;19.20;12.00;;;;;;5073878;28;20509;-69
2023/09/26 10:02:34;;;;;;;7.13;4.40;;;19.30;11.60;;;;;;5073693;28;20416;-71
2023/09/26 10:05:05;;;;;;;5.50;4.40;;;19.40;11.50;;;;;;5073559;28;20970;-69
2023/09/26 10:07:32;;;;;;;7.50;5.80;;;19.50;10.90;;;;;;5073549;28;20401;-70
2023/09/26 10:09:58;;;;;;;6.33;3.80;;;19.60;10.60;;;;;;5073754;28;20424;-70
2023/09/26 10:12:26;;;;;;;5.90;4.93;;;19.80;11.00;;;;;;5073752;28;20423;-71
2023/09/26 10:14:55;;;;;;;6.67;4.60;;;19.90;9.70;;;;;;5072082;28;21010;-69
2023/09/26 10:17:21;;;;;;;5.40;4.53;;;20.00;9.90;;;;;;5072257;28;20421;-69
2023/09/26 10:19:47;;;;;;;23.03;5.20;;;20.10;9.50;;;;;;5073394;28;20436;-69
2023/09/26 10:22:18;;;;;;;4.77;4.27;;;20.20;9.30;;;;;;5072177;28;20193;-69
2023/09/26 10:24:48;;;;;;;5.27;4.30;;;20.30;8.70;;;;;;5071854;28;20468;-69
2023/09/26 10:27:30;;;;;;;4.37;3.80;;;20.40;9.70;;;;;;5073463;28;20420;-69
2023/09/26 10:29:56;;;;;;;5.70;4.17;;;20.60;8.00;;;;;;5073329;28;20404;-71
2023/09/26 10:32:30;;;;;;;5.63;4.87;;;20.70;8.10;;;;;;5072805;28;20421;-69
2023/09/26 10:34:57;;;;;;;6.30;4.60;;;20.80;7.50;;;;;;5073126;28;20420;-69
2023/09/26 10:37:25;;;;;;;6.10;5.20;;;20.90;7.30;;;;;;5073376;28;20419;-70
2023/09/26 10:39:51;;;;;;;5.47;4.70;;;20.90;6.90;;;;;;5073040;28;20467;-70
2023/09/26 10:42:22;;;;;;;8.53;5.40;;;21.00;7.00;;;;;;5072982;28;20463;-70
2023/09/26 10:44:51;;;;;;;7.13;4.27;;;21.30;7.20;;;;;;5072683;28;20209;-69
2023/09/26 10:47:23;;;;;;;4.20;3.80;;;21.50;6.20;;;;;;5073172;28;20412;-69
2023/09/26 10:49:49;;;;;;;4.77;4.30;;;21.70;5.60;;;;;;5071808;28;20441;-69
2023/09/26 10:52:16;;;;;;;4.60;4.20;;;21.80;3.40;;;;;;5071643;28;20930;-70
2023/09/26 10:54:42;;;;;;;4.23;3.83;;;21.70;4.10;;;;;;5072509;28;20785;-69
2023/09/26 10:57:08;;;;;;;4.87;3.40;;;21.70;3.90;;;;;;5072694;28;20427;-70
2023/09/26 10:59:35;;;;;;;5.03;3.80;;;21.80;4.10;;;;;;5072518;28;20443;-69
2023/09/26 11:02:03;;;;;;;4.73;4.00;;;22.00;3.30;;;;;;5072747;28;20826;-69
2023/09/26 11:04:31;;;;;;;6.60;4.23;;;22.10;3.30;;;;;;5072332;28;20471;-69
2023/09/26 11:07:02;;;;;;;6.20;4.10;;;22.20;3.50;;;;;;5072659;28;20477;-69
2023/09/26 11:09:29;;;;;;;3.70;3.20;;;22.30;3.60;;;;;;5072270;28;20452;-70
2023/09/26 11:11:56;;;;;;;5.27;4.37;;;22.40;3.20;;;;;;5072219;28;20919;-69
2023/09/26 11:14:24;;;;;;;6.53;4.50;;;22.60;2.80;;;;;;5072165;28;20984;-69
2023/09/26 11:16:51;;;;;;;3.77;3.47;;;22.80;2.10;;;;;;5072478;28;20817;-69
2023/09/26 11:19:17;;;;;;;5.10;3.73;;;22.90;1.80;;;;;;5072196;28;20432;-71
2023/09/26 11:21:42;;;;;;;5.20;4.13;;;23.10;2.60;;;;;;5072272;28;20950;-69
2023/09/26 11:24:27;;;;;;;18.73;5.23;;;23.00;2.30;;;;;;5070879;28;20726;-69
2023/09/26 11:26:56;;;;;;;4.97;4.47;;;23.10;1.80;;;;;;5072484;28;20649;-69
2023/09/26 11:29:22;;;;;;;5.33;3.97;;;23.00;1.70;;;;;;5070839;28;20448;-69
2023/09/26 11:31:48;;;;;;;4.33;3.33;;;23.00;2.20;;;;;;5072155;28;20424;-70
2023/09/26 11:34:20;;;;;;;4.60;3.60;;;23.20;2.00;;;;;;5072213;28;20849;-70
2023/09/26 11:36:49;;;;;;;4.30;3.90;;;23.30;1.50;;;;;;5072226;28;20212;-70
2023/09/26 11:39:18;;;;;;;4.67;3.60;;;23.30;1.30;;;;;;5072337;28;20517;-70
2023/09/26 11:41:44;;;;;;;6.67;4.00;;;23.30;1.00;;;;;;5072158;28;20443;-70
2023/09/26 11:44:14;;;;;;;4.07;3.53;;;23.40;1.00;;;;;;5071278;28;20510;-70
2023/09/26 11:46:46;;;;;;;3.60;3.20;;;23.50;1.00;;;;;;5073040;28;20219;-72
2023/09/26 11:49:13;;;;;;;3.67;3.23;;;23.50;1.00;;;;;;5072464;28;20535;-70
2023/09/26 11:51:39;;;;;;;3.70;3.40;;;23.70;1.00;;;;;;5072272;28;20927;-69
2023/09/26 11:54:06;;;;;;;4.60;3.70;;;23.90;1.00;;;;;;5071920;28;20507;-69
2023/09/26 11:56:33;;;;;;;3.77;3.40;;;23.90;1.00;;;;;;5072096;28;20447;-71
2023/09/26 11:58:58;;;;;;;4.13;3.73;;;23.90;1.00;;;;;;5070690;28;20868;-70
2023/09/26 12:01:24;;;;;;;4.10;3.40;;;23.90;1.00;;;;;;5072038;28;20476;-71
2023/09/26 12:03:50;;;;;;;3.30;3.00;;;24.00;1.00;;;;;;5071658;28;20198;-70
2023/09/26 12:06:15;;;;;;;4.53;3.43;;;24.00;1.00;;;;;;5071930;28;20412;-69
2023/09/26 12:08:43;;;;;;;6.53;3.63;;;24.10;1.00;;;;;;5070261;28;20217;-70
2023/09/26 12:11:10;;;;;;;4.00;3.70;;;24.30;1.00;;;;;;5071878;28;20181;-70
2023/09/26 12:13:35;;;;;;;2.90;2.53;;;24.30;1.00;;;;;;5071432;28;20420;-70
2023/09/26 12:16:01;;;;;;;3.93;3.37;;;24.50;1.00;;;;;;5070392;28;20794;-70
2023/09/26 12:18:26;;;;;;;4.47;3.50;;;24.50;1.00;;;;;;5071467;28;20233;-70
2023/09/26 12:20:55;;;;;;;4.27;3.87;;;24.50;1.00;;;;;;5071805;28;20178;-69
2023/09/26 12:23:21;;;;;;;3.50;3.20;;;24.60;1.00;;;;;;5071812;28;20202;-70
2023/09/26 12:25:48;;;;;;;7.13;3.97;;;24.60;1.00;;;;;;5071824;28;20825;-70
2023/09/26 12:28:13;;;;;;;10.07;6.10;;;24.80;1.00;;;;;;5071829;28;20440;-70
2023/09/26 12:30:40;;;;;;;4.50;4.10;;;24.90;1.00;;;;;;5070510;28;20875;-70
2023/09/26 12:33:06;;;;;;;8.30;4.17;;;25.00;1.00;;;;;;5071262;28;20176;-71
2023/09/26 12:35:32;;;;;;;5.40;3.83;;;25.00;1.00;;;;;;5071535;28;20496;-71
2023/09/26 12:37:58;;;;;;;6.03;3.73;;;25.00;1.00;;;;;;5070491;28;20198;-71
2023/09/26 12:40:23;;;;;;;3.23;2.93;;;24.90;1.00;;;;;;5071500;28;20461;-71
2023/09/26 12:42:49;;;;;;;3.23;2.97;;;24.90;1.00;;;;;;5070311;28;20213;-71
2023/09/26 12:45:15;;;;;;;3.33;3.13;;;25.10;1.00;;;;;;5071429;28;20216;-71